Latest Weather Observations for Banana Bank

IDQ60801

Issued at 4:05 am EST Monday 21 April 2014 (issued every 30 minutes, with the page automatically refreshed every 10 minutes)

About weather observations | Map of weather stations | Latest weather observations for QLD | Other Formats
Station Details ID: 040925 Name: BANANA BANK NORTH BEACON Lat: -27.53 Lon: 153.33 Height: 7.0 m
Data from the previous 72 hours. | See also: Recent months for locations in Queensland
Date/Time
EST
Temp
°C
App
Temp
°C
Dew
Point
Rel
Hum
%
Delta-T
°C
Wind Press
QNH
hPa
Press
MSL
hPa
Rain
since 9 am
mm
Dir
 
Spd
km/h
Gust
km/h
Spd
kts
Gust
kts
21/04:00am - - - - - WSW 6 7 3 4 - - -
21/03:30am - - - - - W 6 6 3 3 - - -
21/03:00am - - - - - W 6 7 3 4 - - -
21/02:30am - - - - - W 7 9 4 5 - - -
21/02:00am - - - - - W 7 9 4 5 - - -
21/01:30am - - - - - WNW 7 11 4 6 - - -
21/01:00am - - - - - WNW 7 9 4 5 - - -
21/12:30am - - - - - W 7 11 4 6 - - -
21/12:00am - - - - - WNW 9 11 5 6 - - -
 
Date/Time
EST
Temp
°C
App
Temp
°C
Dew
Point
Rel
Hum
%
Delta-T
°C
Wind Press
QNH
hPa
Press
MSL
hPa
Rain
since 9 am
mm
Dir
 
Spd
km/h
Gust
km/h
Spd
kts
Gust
kts
20/11:30pm - - - - - WNW 13 15 7 8 - - -
20/11:00pm - - - - - N 19 22 10 12 - - -
20/10:30pm - - - - - N 19 20 10 11 - - -
20/10:00pm - - - - - N 17 20 9 11 - - -
20/09:30pm - - - - - N 13 15 7 8 - - -
20/09:00pm - - - - - N 11 15 6 8 - - -
20/08:30pm - - - - - NNE 11 13 6 7 - - -
20/08:00pm - - - - - NNE 11 13 6 7 - - -
20/07:30pm - - - - - NE 11 15 6 8 - - -
20/07:00pm - - - - - NNE 11 13 6 7 - - -
20/06:30pm - - - - - NNE 13 15 7 8 - - -
20/06:00pm - - - - - NNE 15 17 8 9 - - -
20/05:30pm - - - - - NNE 17 19 9 10 - - -
20/05:00pm - - - - - NNE 17 20 9 11 - - -
20/04:30pm - - - - - NNE 19 22 10 12 - - -
20/04:00pm - - - - - NNE 17 22 9 12 - - -
20/03:30pm - - - - - N 17 19 9 10 - - -
20/03:00pm - - - - - N 15 17 8 9 - - -
20/02:30pm - - - - - N 15 17 8 9 - - -
20/02:00pm - - - - - N 13 15 7 8 - - -
20/01:30pm - - - - - N 13 15 7 8 - - -
20/01:00pm - - - - - N 9 11 5 6 - - -
20/12:30pm - - - - - N 7 9 4 5 - - -
20/12:00pm - - - - - N 6 7 3 4 - - -
20/11:30am - - - - - CALM 0 0 0 0 - - -
20/11:00am - - - - - E 4 6 2 3 - - -
20/10:30am - - - - - CALM 0 0 0 0 - - -
20/10:00am - - - - - CALM 0 0 0 0 - - -
20/09:30am - - - - - CALM 0 4 0 2 - - -
20/09:00am - - - - - SW 4 6 2 3 - - -
20/08:30am - - - - - SW 7 9 4 5 - - -
20/08:00am - - - - - SSW 7 9 4 5 - - -
20/07:30am - - - - - SSW 6 9 3 5 - - -
20/07:00am - - - - - SSW 6 7 3 4 - - -
20/06:30am - - - - - SW 7 9 4 5 - - -
20/06:00am - - - - - S 6 7 3 4 - - -
20/05:30am - - - - - SSW 7 9 4 5 - - -
20/05:00am - - - - - S 7 9 4 5 - - -
20/04:30am - - - - - S 11 13 6 7 - - -
20/04:00am - - - - - S 13 15 7 8 - - -
20/03:30am - - - - - S 11 13 6 7 - - -
20/03:00am - - - - - S 9 13 5 7 - - -
20/02:30am - - - - - S 9 11 5 6 - - -
20/02:00am - - - - - S 9 13 5 7 - - -
20/01:30am - - - - - SSE 11 13 6 7 - - -
20/01:00am - - - - - SSE 6 7 3 4 - - -
20/12:30am - - - - - S 6 7 3 4 - - -
20/12:00am - - - - - ESE 6 7 3 4 - - -
 
Date/Time
EST
Temp
°C
App
Temp
°C
Dew
Point
Rel
Hum
%
Delta-T
°C
Wind Press
QNH
hPa
Press
MSL
hPa
Rain
since 9 am
mm
Dir
 
Spd
km/h
Gust
km/h
Spd
kts
Gust
kts
19/11:30pm - - - - - SE 4 6 2 3 - - -
19/11:00pm - - - - - CALM 0 0 0 0 - - -
19/10:30pm - - - - - CALM 0 4 0 2 - - -
19/10:00pm - - - - - ENE 6 6 3 3 - - -
19/09:30pm - - - - - ENE 7 9 4 5 - - -
19/09:00pm - - - - - ENE 6 9 3 5 - - -
19/08:30pm - - - - - E 9 13 5 7 - - -
19/08:00pm - - - - - E 7 9 4 5 - - -
19/07:30pm - - - - - E 11 15 6 8 - - -
19/07:00pm - - - - - E 11 15 6 8 - - -
19/06:30pm - - - - - ESE 15 19 8 10 - - -
19/06:00pm - - - - - E 15 17 8 9 - - -
19/05:30pm - - - - - E 15 19 8 10 - - -
19/05:00pm - - - - - E 19 20 10 11 - - -
19/04:30pm - - - - - E 17 20 9 11 - - -
19/04:00pm - - - - - NE 13 17 7 9 - - -
19/03:30pm - - - - - N 11 15 6 8 - - -
19/03:00pm - - - - - NNE 11 15 6 8 - - -
19/02:30pm - - - - - NNE 9 13 5 7 - - -
19/02:00pm - - - - - NNE 11 15 6 8 - - -
19/01:30pm - - - - - ENE 7 9 4 5 - - -
19/01:00pm - - - - - NNE 7 11 4 6 - - -
19/12:30pm - - - - - NE 9 11 5 6 - - -
19/12:00pm - - - - - ENE 9 9 5 5 - - -
19/11:30am - - - - - SE 4 7 2 4 - - -
19/11:00am - - - - - SW 4 6 2 3 - - -
19/10:30am - - - - - SSW 11 15 6 8 - - -
19/10:00am - - - - - S 2 13 1 7 - - -
19/09:30am - - - - - SW 2 6 1 3 - - -
19/09:00am - - - - - SSW 2 6 1 3 - - -
19/08:30am - - - - - S 4 7 2 4 - - -
19/08:00am - - - - - SW 11 15 6 8 - - -
19/07:30am - - - - - WSW 7 11 4 6 - - -
19/07:00am - - - - - WSW 7 13 4 7 - - -
19/06:30am - - - - - WSW 6 11 3 6 - - -
19/06:00am - - - - - SW 11 17 6 9 - - -
19/05:30am - - - - - WSW 13 15 7 8 - - -
19/05:00am - - - - - SW 9 15 5 8 - - -
19/04:30am - - - - - SW 7 15 4 8 - - -
19/04:00am - - - - - WSW 15 19 8 10 - - -
19/03:30am - - - - - W 13 17 7 9 - - -
19/03:00am - - - - - WSW 13 19 7 10 - - -
19/02:30am - - - - - W 15 19 8 10 - - -
19/02:00am - - - - - NNW 20 24 11 13 - - -
19/01:30am - - - - - N 24 28 13 15 - - -
19/01:00am - - - - - N 19 22 10 12 - - -
19/12:30am - - - - - N 13 19 7 10 - - -
19/12:00am - - - - - NNW 7 11 4 6 - - -
 
Date/Time
EST
Temp
°C
App
Temp
°C
Dew
Point
Rel
Hum
%
Delta-T
°C
Wind Press
QNH
hPa
Press
MSL
hPa
Rain
since 9 am
mm
Dir
 
Spd
km/h
Gust
km/h
Spd
kts
Gust
kts
18/11:30pm - - - - - NW 7 9 4 5 - - -
18/11:00pm - - - - - NW 9 11 5 6 - - -
18/10:30pm - - - - - N 11 15 6 8 - - -
18/10:00pm - - - - - N 15 19 8 10 - - -
18/09:30pm - - - - - N 11 15 6 8 - - -
18/09:00pm - - - - - NNE 7 7 4 4 - - -
18/08:30pm - - - - - NE 7 9 4 5 - - -
18/08:00pm - - - - - NE 9 11 5 6 - - -
18/07:30pm - - - - - NE 9 11 5 6 - - -
18/07:00pm - - - - - ENE 11 13 6 7 - - -
18/06:30pm - - - - - NE 13 15 7 8 - - -
18/06:00pm - - - - - ENE 15 17 8 9 - - -
18/05:30pm - - - - - NE 15 19 8 10 - - -
18/05:00pm - - - - - NE 19 22 10 12 - - -
18/04:30pm - - - - - NNE 20 24 11 13 - - -
18/04:00pm - - - - - NNE 20 24 11 13 - - -
18/03:30pm - - - - - N 17 20 9 11 - - -
18/03:00pm - - - - - N 19 22 10 12 - - -
18/02:30pm - - - - - N 15 19 8 10 - - -
18/02:00pm - - - - - NNE 9 11 5 6 - - -
18/01:30pm - - - - - N 11 15 6 8 - - -
18/01:00pm - - - - - N 11 13 6 7 - - -
18/12:30pm - - - - - N 15 19 8 10 - - -
18/12:00pm - - - - - N 11 15 6 8 - - -
18/11:30am - - - - - NNE 2 6 1 3 - - -
18/11:00am - - - - - CALM 0 0 0 0 - - -
18/10:30am - - - - - S 4 4 2 2 - - -
18/10:00am - - - - - S 6 6 3 3 - - -
18/09:30am - - - - - SSW 6 7 3 4 - - -
18/09:00am - - - - - S 6 7 3 4 - - -
18/08:30am - - - - - SSW 7 9 4 5 - - -
18/08:00am - - - - - SSW 7 9 4 5 - - -
18/07:30am - - - - - SSW 9 11 5 6 - - -
18/07:00am - - - - - SSW 7 7 4 4 - - -
18/06:30am - - - - - SSW 7 9 4 5 - - -
18/06:00am - - - - - S 6 7 3 4 - - -
18/05:30am - - - - - S 6 7 3 4 - - -
18/05:00am - - - - - SSW 7 11 4 6 - - -
18/04:30am - - - - - SSW 7 9 4 5 - - -

Other Formats:

Comma delimited format used in spreadsheet applications
http://www.bom.gov.au/fwo/IDQ60801/IDQ60801.94591.axf

JavaScript Object Notation format (JSON) in row-major order
http://www.bom.gov.au/fwo/IDQ60801/IDQ60801.94591.json